Bernard A — TCWN3 — position and weather

sailwx.info

Track history (hours):
 
Tides and Currents Weather Stations Pressure Air Temp Water Temp Dewpoint Dewpoint Depression Visibility Wind Speed Wind Dir Waves Ship Positions

Bernard A

Last reported at 2014-Oct-19 23:29 UTC. Time now 2014-Oct-20 08:16 UTC.
Position S 11°06' W 005°15'.

Length 184 m; draft 7.7 m.

Type: Cargo ship. MMSI: 271040008.

Date/timePositionNaut miles runAvg speedWind from/ knotsBaromVisibWave heightAir tempDewpointWater temp
2014-Oct-19 23:29S 11°06' W 005°15'28332803.7
2014-Oct-19 22:28N 36°06' W 005°24'0 0.1
2014-Oct-19 21:22N 36°06' W 005°24'0 0.1
2014-Oct-19 20:31N 36°06' W 005°24'0 0.0
2014-Oct-19 19:31N 36°06' W 005°24'0 0.0
2014-Oct-19 18:31N 36°06' W 005°24'0 0.1
2014-Oct-19 17:19N 36°06' W 005°24'0 0.1
2014-Oct-19 16:33N 36°06' W 005°24'6 5.7
2014-Oct-19 15:33N 36°00' W 005°23'12 0.6
2014-Oct-18 19:29N 35°53' W 005°34'23 9.8
2014-Oct-18 17:10N 35°51' W 006°02'2514.1
2014-Oct-18 15:25N 35°30' W 006°19'50 1.0
2014-Oct-16 14:34N 35°59' W 005°29'1010.3
2014-Oct-16 13:33N 36°02' W 005°16'  
2014-Oct-11 18:07N 35°47' W 000°36'0 0.0
2014-Oct-11 17:25N 35°46' W 000°36'0 0.0
2014-Oct-11 16:31N 35°46' W 000°36'0 0.0
2014-Oct-10 23:13N 35°46' W 000°36'0 0.0
2014-Oct-10 17:07N 35°46' W 000°36'0 0.0
2014-Oct-10 16:19N 35°46' W 000°36'0 0.0
2014-Oct-10 01:25N 35°46' W 000°36'0 0.2
2014-Oct-10 00:33N 35°47' W 000°36'0 0.1
2014-Oct-09 23:31N 35°46' W 000°36'  
Track history (hours):
 
Tides and Currents Weather Stations Pressure Air Temp Water Temp Dewpoint Dewpoint Depression Visibility Wind Speed Wind Dir Waves Ship Positions

Bernard A

Last reported at 2014-Oct-19 23:29 UTC. Time now 2014-Oct-20 08:16 UTC.
Position S 11°06' W 005°15'.

Length 184 m; draft 7.7 m.

Type: Cargo ship. MMSI: 271040008.

Date/timePositionNaut miles runAvg speedWind from/ knotsBaromVisibWave heightAir tempDewpointWater temp
2014-Oct-19 23:29S 11°06' W 005°15'28332803.7
2014-Oct-19 22:28N 36°06' W 005°24'0 0.1
2014-Oct-19 21:22N 36°06' W 005°24'0 0.1
2014-Oct-19 20:31N 36°06' W 005°24'0 0.0
2014-Oct-19 19:31N 36°06' W 005°24'0 0.0
2014-Oct-19 18:31N 36°06' W 005°24'0 0.1
2014-Oct-19 17:19N 36°06' W 005°24'0 0.1
2014-Oct-19 16:33N 36°06' W 005°24'6 5.7
2014-Oct-19 15:33N 36°00' W 005°23'12 0.6
2014-Oct-18 19:29N 35°53' W 005°34'23 9.8
2014-Oct-18 17:10N 35°51' W 006°02'2514.1
2014-Oct-18 15:25N 35°30' W 006°19'50 1.0
2014-Oct-16 14:34N 35°59' W 005°29'1010.3
2014-Oct-16 13:33N 36°02' W 005°16'  
2014-Oct-11 18:07N 35°47' W 000°36'0 0.0
2014-Oct-11 17:25N 35°46' W 000°36'0 0.0
2014-Oct-11 16:31N 35°46' W 000°36'0 0.0
2014-Oct-10 23:13N 35°46' W 000°36'0 0.0
2014-Oct-10 17:07N 35°46' W 000°36'0 0.0
2014-Oct-10 16:19N 35°46' W 000°36'0 0.0
2014-Oct-10 01:25N 35°46' W 000°36'0 0.2
2014-Oct-10 00:33N 35°47' W 000°36'0 0.1
2014-Oct-09 23:31N 35°46' W 000°36'  

Dump ship's entire track history